Elena Of London — 2COR3 — position and weather

sailwx.info

Track history (hours):
 
Tides and Currents Weather Stations Pressure Air Temp Water Temp Dewpoint Dewpoint Depression Visibility Wind Speed Wind Dir Waves Ship Positions

Elena Of London

Last reported at 2014-Jul-19 17:33 UTC. Time now 2014-Jul-22 21:38 UTC.
Position N 43°48' E 007°48'.

Length 44 m; draft 5.2 m.

Type: Sailing vessel. MMSI: 235074534.

Date/timePositionNaut miles runAvg speedWind from/ knotsBaromVisibWave heightAir tempDewpointWater temp
2014-Jul-19 17:33N 43°48' E 007°48'1212.0
2014-Jul-19 16:33N 43°42' E 008°03'1211.9
2014-Jul-19 15:33N 43°36' E 008°17'1211.9
2014-Jul-19 14:33N 43°29' E 008°31'1212.1
2014-Jul-19 13:33N 43°23' E 008°44'1211.8
2014-Jul-19 12:33N 43°16' E 008°58'1111.2
2014-Jul-19 11:33N 43°10' E 009°11'1111.3
2014-Jul-19 10:33N 43°04' E 009°24'1211.9
2014-Jul-19 09:33N 42°57' E 009°37'1111.3
2014-Jul-19 08:33N 42°50' E 009°49'1110.9
2014-Jul-19 07:33N 42°43' E 010°00'1110.9
2014-Jul-19 06:33N 42°36' E 010°11'1111.2
2014-Jul-19 05:33N 42°27' E 010°22'1611.2
2014-Jul-19 04:09N 42°18' E 010°39'711.0
2014-Jul-19 03:33N 42°13' E 010°45'1111.3
2014-Jul-19 02:33N 42°06' E 010°57'1211.0
2014-Jul-19 01:30N 41°58' E 011°09'1110.8
2014-Jul-19 00:31N 41°53' E 011°21'1410.6
2014-Jul-18 23:09N 41°46' E 011°38'710.5
2014-Jul-18 22:30N 41°42' E 011°46'3110.2
2014-Jul-18 19:26N 41°26' E 012°21'1010.7
2014-Jul-18 18:32N 41°21' E 012°32'1111.0
2014-Jul-18 17:32N 41°15' E 012°45'1110.9
2014-Jul-18 16:33N 41°10' E 012°57'1110.7
2014-Jul-18 15:33N 41°05' E 013°10'1010.3
2014-Jul-18 14:33N 41°02' E 013°23'1010.4
2014-Jul-18 13:33N 40°56' E 013°34'1010.4
2014-Jul-18 12:33N 40°51' E 013°46'1110.5
2014-Jul-18 11:33N 40°45' E 013°57'10 9.9
2014-Jul-18 10:33N 40°47' E 014°10'4 3.8
2014-Jul-18 09:33N 40°50' E 014°14'0 0.0
2014-Jul-18 08:30N 40°50' E 014°14'6 3.1
2014-Jul-18 06:33N 40°44' E 014°15'1110.3
2014-Jul-18 05:30N 40°34' E 014°21'7 0.5
2014-Jul-17 13:21N 40°37' E 014°30'0 0.0
2014-Jul-17 12:19N 40°37' E 014°30'10 5.7
2014-Jul-17 10:34N 40°34' E 014°17'1111.0
2014-Jul-17 09:34N 40°38' E 014°04'1210.5
2014-Jul-17 08:26N 40°42' E 013°49'910.6
2014-Jul-17 07:33N 40°47' E 013°38'1010.2
2014-Jul-17 06:34N 40°51' E 013°26'10 9.9
2014-Jul-17 05:33N 40°52' E 013°13'1010.2
2014-Jul-17 04:34N 40°54' E 012°60'1 0.9
2014-Jul-17 03:16N 40°54' E 012°58'0 0.0
2014-Jul-17 02:31N 40°54' E 012°58'0 0.0
2014-Jul-17 01:25N 40°54' E 012°58'0 0.0
2014-Jul-17 00:28N 40°54' E 012°58'0 0.0
2014-Jul-16 20:07N 40°54' E 012°58'0 0.0
2014-Jul-16 19:32N 40°54' E 012°58'1 0.6
2014-Jul-16 18:32N 40°55' E 012°59'2 2.3
2014-Jul-16 17:32N 40°57' E 012°58'5 5.2
2014-Jul-16 16:33N 40°55' E 012°52'0 0.0
2014-Jul-16 15:30N 40°55' E 012°52'0 0.0
2014-Jul-16 12:26N 40°55' E 012°52'0 0.0
2014-Jul-16 11:32N 40°55' E 012°52'0 0.0
2014-Jul-16 08:07N 40°55' E 012°52'4 2.8
2014-Jul-16 06:33N 40°53' E 012°57'2 0.4
2014-Jul-16 01:06N 40°54' E 012°58'0 0.0
2014-Jul-16 00:30N 40°54' E 012°58'0 0.0
2014-Jul-15 19:30N 40°54' E 012°58'0 0.0
2014-Jul-15 18:30N 40°54' E 012°58'2 1.6
2014-Jul-15 17:33N 40°53' E 012°59'21 0.7
2014-Jul-14 12:17N 40°49' E 013°27'7 9.9
2014-Jul-14 11:33N 40°48' E 013°36'1010.3
2014-Jul-14 10:33N 40°47' E 013°50'10 9.9
2014-Jul-14 09:33N 40°42' E 014°01'1010.1
2014-Jul-14 08:33N 40°36' E 014°11'3 2.9
2014-Jul-14 07:32N 40°34' E 014°14'1 0.1
2014-Jul-13 18:31N 40°33' E 014°14'7 6.9
2014-Jul-13 17:33N 40°30' E 014°23'7 7.4
2014-Jul-13 16:33N 40°29' E 014°32'7 1.1
2014-Jul-13 10:25N 40°36' E 014°33'8 8.9
2014-Jul-13 09:32N 40°33' E 014°24'2 2.3
2014-Jul-13 08:32N 40°34' E 014°21'5 0.2
2014-Jul-12 12:25N 40°33' E 014°15'0 0.0
2014-Jul-12 11:18N 40°33' E 014°15'1 0.4
2014-Jul-12 08:07N 40°33' E 014°16'1 2.3
2014-Jul-12 07:32N 40°34' E 014°14'0 0.0
2014-Jul-12 06:33N 40°34' E 014°14'0 0.0
2014-Jul-12 03:33N 40°34' E 014°14'0 0.0
2014-Jul-12 02:33N 40°34' E 014°14'0 0.0
2014-Jul-12 01:32N 40°34' E 014°14'0 0.0
2014-Jul-12 00:33N 40°34' E 014°14'0 0.0
2014-Jul-11 23:32N 40°34' E 014°14'0 0.0
2014-Jul-11 22:33N 40°34' E 014°14'0 0.0
2014-Jul-11 21:34N 40°34' E 014°14'0 0.0
2014-Jul-11 20:34N 40°34' E 014°14'0 0.0
2014-Jul-11 19:33N 40°34' E 014°14'0 0.0
2014-Jul-11 18:33N 40°34' E 014°14'1 1.4
2014-Jul-11 17:33N 40°32' E 014°15'5 5.2
2014-Jul-11 16:34N 40°37' E 014°16'9 9.5
2014-Jul-11 15:34N 40°47' E 014°14'3 0.1
2014-Jul-10 20:13N 40°50' E 014°14'0 0.0
2014-Jul-10 10:24N 40°50' E 014°14'  
Track history (hours):
 
Tides and Currents Weather Stations Pressure Air Temp Water Temp Dewpoint Dewpoint Depression Visibility Wind Speed Wind Dir Waves Ship Positions

Elena Of London

Last reported at 2014-Jul-19 17:33 UTC. Time now 2014-Jul-22 21:38 UTC.
Position N 43°48' E 007°48'.

Length 44 m; draft 5.2 m.

Type: Sailing vessel. MMSI: 235074534.

Date/timePositionNaut miles runAvg speedWind from/ knotsBaromVisibWave heightAir tempDewpointWater temp
2014-Jul-19 17:33N 43°48' E 007°48'1212.0
2014-Jul-19 16:33N 43°42' E 008°03'1211.9
2014-Jul-19 15:33N 43°36' E 008°17'1211.9
2014-Jul-19 14:33N 43°29' E 008°31'1212.1
2014-Jul-19 13:33N 43°23' E 008°44'1211.8
2014-Jul-19 12:33N 43°16' E 008°58'1111.2
2014-Jul-19 11:33N 43°10' E 009°11'1111.3
2014-Jul-19 10:33N 43°04' E 009°24'1211.9
2014-Jul-19 09:33N 42°57' E 009°37'1111.3
2014-Jul-19 08:33N 42°50' E 009°49'1110.9
2014-Jul-19 07:33N 42°43' E 010°00'1110.9
2014-Jul-19 06:33N 42°36' E 010°11'1111.2
2014-Jul-19 05:33N 42°27' E 010°22'1611.2
2014-Jul-19 04:09N 42°18' E 010°39'711.0
2014-Jul-19 03:33N 42°13' E 010°45'1111.3
2014-Jul-19 02:33N 42°06' E 010°57'1211.0
2014-Jul-19 01:30N 41°58' E 011°09'1110.8
2014-Jul-19 00:31N 41°53' E 011°21'1410.6
2014-Jul-18 23:09N 41°46' E 011°38'710.5
2014-Jul-18 22:30N 41°42' E 011°46'3110.2
2014-Jul-18 19:26N 41°26' E 012°21'1010.7
2014-Jul-18 18:32N 41°21' E 012°32'1111.0
2014-Jul-18 17:32N 41°15' E 012°45'1110.9
2014-Jul-18 16:33N 41°10' E 012°57'1110.7
2014-Jul-18 15:33N 41°05' E 013°10'1010.3
2014-Jul-18 14:33N 41°02' E 013°23'1010.4
2014-Jul-18 13:33N 40°56' E 013°34'1010.4
2014-Jul-18 12:33N 40°51' E 013°46'1110.5
2014-Jul-18 11:33N 40°45' E 013°57'10 9.9
2014-Jul-18 10:33N 40°47' E 014°10'4 3.8
2014-Jul-18 09:33N 40°50' E 014°14'0 0.0
2014-Jul-18 08:30N 40°50' E 014°14'6 3.1
2014-Jul-18 06:33N 40°44' E 014°15'1110.3
2014-Jul-18 05:30N 40°34' E 014°21'7 0.5
2014-Jul-17 13:21N 40°37' E 014°30'0 0.0
2014-Jul-17 12:19N 40°37' E 014°30'10 5.7
2014-Jul-17 10:34N 40°34' E 014°17'1111.0
2014-Jul-17 09:34N 40°38' E 014°04'1210.5
2014-Jul-17 08:26N 40°42' E 013°49'910.6
2014-Jul-17 07:33N 40°47' E 013°38'1010.2
2014-Jul-17 06:34N 40°51' E 013°26'10 9.9
2014-Jul-17 05:33N 40°52' E 013°13'1010.2
2014-Jul-17 04:34N 40°54' E 012°60'1 0.9
2014-Jul-17 03:16N 40°54' E 012°58'0 0.0
2014-Jul-17 02:31N 40°54' E 012°58'0 0.0
2014-Jul-17 01:25N 40°54' E 012°58'0 0.0
2014-Jul-17 00:28N 40°54' E 012°58'0 0.0
2014-Jul-16 20:07N 40°54' E 012°58'0 0.0
2014-Jul-16 19:32N 40°54' E 012°58'1 0.6
2014-Jul-16 18:32N 40°55' E 012°59'2 2.3
2014-Jul-16 17:32N 40°57' E 012°58'5 5.2
2014-Jul-16 16:33N 40°55' E 012°52'0 0.0
2014-Jul-16 15:30N 40°55' E 012°52'0 0.0
2014-Jul-16 12:26N 40°55' E 012°52'0 0.0
2014-Jul-16 11:32N 40°55' E 012°52'0 0.0
2014-Jul-16 08:07N 40°55' E 012°52'4 2.8
2014-Jul-16 06:33N 40°53' E 012°57'2 0.4
2014-Jul-16 01:06N 40°54' E 012°58'0 0.0
2014-Jul-16 00:30N 40°54' E 012°58'0 0.0
2014-Jul-15 19:30N 40°54' E 012°58'0 0.0
2014-Jul-15 18:30N 40°54' E 012°58'2 1.6
2014-Jul-15 17:33N 40°53' E 012°59'21 0.7
2014-Jul-14 12:17N 40°49' E 013°27'7 9.9
2014-Jul-14 11:33N 40°48' E 013°36'1010.3
2014-Jul-14 10:33N 40°47' E 013°50'10 9.9
2014-Jul-14 09:33N 40°42' E 014°01'1010.1
2014-Jul-14 08:33N 40°36' E 014°11'3 2.9
2014-Jul-14 07:32N 40°34' E 014°14'1 0.1
2014-Jul-13 18:31N 40°33' E 014°14'7 6.9
2014-Jul-13 17:33N 40°30' E 014°23'7 7.4
2014-Jul-13 16:33N 40°29' E 014°32'7 1.1
2014-Jul-13 10:25N 40°36' E 014°33'8 8.9
2014-Jul-13 09:32N 40°33' E 014°24'2 2.3
2014-Jul-13 08:32N 40°34' E 014°21'5 0.2
2014-Jul-12 12:25N 40°33' E 014°15'0 0.0
2014-Jul-12 11:18N 40°33' E 014°15'1 0.4
2014-Jul-12 08:07N 40°33' E 014°16'1 2.3
2014-Jul-12 07:32N 40°34' E 014°14'0 0.0
2014-Jul-12 06:33N 40°34' E 014°14'0 0.0
2014-Jul-12 03:33N 40°34' E 014°14'0 0.0
2014-Jul-12 02:33N 40°34' E 014°14'0 0.0
2014-Jul-12 01:32N 40°34' E 014°14'0 0.0
2014-Jul-12 00:33N 40°34' E 014°14'0 0.0
2014-Jul-11 23:32N 40°34' E 014°14'0 0.0
2014-Jul-11 22:33N 40°34' E 014°14'0 0.0
2014-Jul-11 21:34N 40°34' E 014°14'0 0.0
2014-Jul-11 20:34N 40°34' E 014°14'0 0.0
2014-Jul-11 19:33N 40°34' E 014°14'0 0.0
2014-Jul-11 18:33N 40°34' E 014°14'1 1.4
2014-Jul-11 17:33N 40°32' E 014°15'5 5.2
2014-Jul-11 16:34N 40°37' E 014°16'9 9.5
2014-Jul-11 15:34N 40°47' E 014°14'3 0.1
2014-Jul-10 20:13N 40°50' E 014°14'0 0.0
2014-Jul-10 10:24N 40°50' E 014°14'  

Dump ship's entire track history